Time;durP1;ratioP1;P1;durP2;ratioP2;P2;SDS_P1;SDS_P2;PMS_P1;PMS_P2;Temp;Humidity;BMP_temperature;BMP_pressure;BME280_temperature;BME280_humidity;BME280_pressure;Samples;Min_cycle;Max_cycle;Signal;HPM_P1;HPM_P2
2022/06/23 00:01:26;;;;;;;1.70;0.65;;;20.90;93.60;;;;;;5054513;28;20175;-67
2022/06/23 00:03:55;;;;;;;0.95;0.82;;;20.80;93.20;;;;;;5054668;28;20167;-67
2022/06/23 00:06:42;;;;;;;0.82;0.60;;;21.00;93.00;;;;;;5054510;28;20176;-68
2022/06/23 00:09:33;;;;;;;0.75;0.70;;;21.00;93.00;;;;;;5054228;28;20269;-67
2022/06/23 00:12:00;;;;;;;0.70;0.70;;;20.90;93.00;;;;;;5054284;28;20234;-68
2022/06/23 00:14:27;;;;;;;0.68;0.60;;;20.90;92.70;;;;;;5054507;28;20198;-67
2022/06/23 00:16:53;;;;;;;0.70;0.70;;;20.80;92.70;;;;;;5054300;28;20177;-67
2022/06/23 00:19:19;;;;;;;0.47;0.47;;;20.80;92.60;;;;;;5054301;28;20592;-67
2022/06/23 00:21:49;;;;;;;0.70;0.70;;;20.80;92.50;;;;;;5054161;28;20179;-67
2022/06/23 00:24:22;;;;;;;0.73;0.63;;;20.90;92.40;;;;;;5054631;28;20230;-67
2022/06/23 00:26:49;;;;;;;1.20;0.60;;;20.80;92.80;;;;;;5054387;28;20262;-67
2022/06/23 00:29:18;;;;;;;0.93;0.93;;;20.80;92.60;;;;;;5019609;28;20178;-67
2022/06/23 00:31:56;;;;;;;1.17;0.70;;;20.80;92.70;;;;;;5053763;28;20290;-68
2022/06/23 00:34:23;;;;;;;1.42;0.77;;;20.80;92.60;;;;;;5035885;28;20186;-68
2022/06/23 00:37:03;;;;;;;0.80;0.80;;;20.90;92.10;;;;;;5054006;28;20255;-66
2022/06/23 00:39:32;;;;;;;0.60;0.60;;;20.80;92.40;;;;;;5054222;28;20210;-67
2022/06/23 00:41:59;;;;;;;0.80;0.75;;;20.80;92.10;;;;;;5053988;28;20502;-68
2022/06/23 00:44:42;;;;;;;0.60;0.60;;;20.90;92.00;;;;;;5053690;28;20594;-67
2022/06/23 00:47:21;;;;;;;0.80;0.68;;;20.80;91.80;;;;;;5053948;28;20175;-68
2022/06/23 00:50:03;;;;;;;0.80;0.80;;;20.80;92.10;;;;;;5053750;28;20203;-67
2022/06/23 00:53:09;;;;;;;0.82;0.82;;;20.70;91.70;;;;;;5053660;28;20168;-67
2022/06/23 00:55:35;;;;;;;0.70;0.70;;;20.70;92.00;;;;;;5053509;28;20175;-67
2022/06/23 00:58:14;;;;;;;0.70;0.70;;;20.70;91.60;;;;;;5035711;28;20651;-64
2022/06/23 01:00:42;;;;;;;0.75;0.70;;;20.80;91.80;;;;;;5053364;28;20643;-68
2022/06/23 01:03:07;;;;;;;0.73;0.60;;;20.80;91.80;;;;;;5035700;28;20522;-67
2022/06/23 01:05:44;;;;;;;0.68;0.68;;;20.90;91.40;;;;;;5053349;28;20178;-67
2022/06/23 01:08:29;;;;;;;0.60;0.60;;;20.80;91.30;;;;;;5053625;28;20228;-68
2022/06/23 01:11:11;;;;;;;0.70;0.70;;;20.80;91.00;;;;;;5053466;28;20203;-67
2022/06/23 01:13:49;;;;;;;1.00;0.80;;;20.80;91.00;;;;;;5035430;28;20167;-64
2022/06/23 01:16:25;;;;;;;0.47;0.47;;;20.80;90.90;;;;;;5053268;28;20178;-67
2022/06/23 01:19:32;;;;;;;0.88;0.77;;;20.90;90.60;;;;;;5053408;28;20162;-67
2022/06/23 01:22:03;;;;;;;0.70;0.70;;;20.80;90.70;;;;;;5053153;28;20171;-68
2022/06/23 01:24:29;;;;;;;1.15;0.70;;;20.80;90.50;;;;;;5053408;28;20182;-67
2022/06/23 01:27:01;;;;;;;0.60;0.60;;;20.80;90.40;;;;;;5053310;28;20167;-67
2022/06/23 01:29:44;;;;;;;0.40;0.40;;;20.90;90.60;;;;;;5053398;28;20292;-68
2022/06/23 01:32:31;;;;;;;1.25;0.50;;;20.80;90.30;;;;;;5052945;28;20198;-68
2022/06/23 01:35:16;;;;;;;0.68;0.65;;;20.80;90.60;;;;;;5052961;28;20175;-68
2022/06/23 01:37:51;;;;;;;0.98;0.60;;;20.80;90.40;;;;;;5053033;28;20246;-68
2022/06/23 01:40:23;;;;;;;0.70;0.70;;;20.80;90.70;;;;;;5052998;28;20217;-68
2022/06/23 01:43:04;;;;;;;0.60;0.60;;;20.70;90.50;;;;;;5052979;28;20167;-64
2022/06/23 01:46:07;;;;;;;1.02;0.50;;;20.80;90.20;;;;;;5053186;28;20601;-67
2022/06/23 01:48:52;;;;;;;1.00;0.80;;;20.70;90.40;;;;;;5052984;28;20175;-67
2022/06/23 01:51:41;;;;;;;0.93;0.60;;;20.60;90.10;;;;;;5052851;28;20559;-68
2022/06/23 01:54:14;;;;;;;0.50;0.50;;;20.60;90.30;;;;;;5039603;28;20187;-67
2022/06/23 01:57:02;;;;;;;0.98;0.70;;;20.60;90.10;;;;;;5053000;28;20175;-68
2022/06/23 02:00:01;;;;;;;1.20;0.85;;;20.50;90.30;;;;;;5052971;28;20176;-68
2022/06/23 02:02:46;;;;;;;1.15;0.80;;;20.50;90.40;;;;;;5035044;28;20698;-68
2022/06/23 02:05:27;;;;;;;1.85;0.68;;;20.50;90.70;;;;;;5034971;28;20175;-68
2022/06/23 02:08:27;;;;;;;1.40;0.90;;;20.50;90.30;;;;;;5052714;28;20667;-67
2022/06/23 02:10:56;;;;;;;0.88;0.70;;;20.50;90.40;;;;;;5034891;28;20210;-68
2022/06/23 02:13:32;;;;;;;1.13;1.00;;;20.40;90.40;;;;;;5053005;28;20175;-67
2022/06/23 02:16:11;;;;;;;0.70;0.70;;;20.50;90.30;;;;;;5053028;28;20256;-67
2022/06/23 02:18:57;;;;;;;0.88;0.80;;;20.40;90.50;;;;;;5035212;28;20237;-68
2022/06/23 02:21:46;;;;;;;1.15;0.85;;;20.20;90.60;;;;;;5051967;28;20544;-68
2022/06/23 02:24:22;;;;;;;1.08;0.80;;;20.30;90.70;;;;;;5052602;28;20532;-68
2022/06/23 02:26:53;;;;;;;0.80;0.70;;;20.30;90.40;;;;;;5052693;28;20170;-68
2022/06/23 02:29:25;;;;;;;0.65;0.65;;;20.20;90.60;;;;;;5034718;28;20629;-68
2022/06/23 02:32:13;;;;;;;0.70;0.65;;;20.30;90.70;;;;;;5034825;28;20272;-68
2022/06/23 02:34:46;;;;;;;1.00;0.68;;;20.30;90.80;;;;;;5052568;28;20175;-67
2022/06/23 02:37:49;;;;;;;0.75;0.70;;;20.30;90.90;;;;;;5052449;28;20640;-68
2022/06/23 02:40:37;;;;;;;1.42;0.60;;;20.30;90.90;;;;;;5052510;28;20175;-68
2022/06/23 02:43:12;;;;;;;0.85;0.85;;;20.20;90.60;;;;;;5052563;28;20178;-67
2022/06/23 02:46:11;;;;;;;0.52;0.52;;;20.00;90.70;;;;;;5054016;28;20171;-67
2022/06/23 02:49:14;;;;;;;1.00;0.85;;;20.00;90.70;;;;;;5056114;28;20164;-64
2022/06/23 02:52:15;;;;;;;0.82;0.70;;;20.00;91.30;;;;;;5055871;28;20639;-68
2022/06/23 02:55:02;;;;;;;1.25;0.60;;;19.90;91.00;;;;;;4955959;29;20274;-68
2022/06/23 02:57:42;;;;;;;0.70;0.63;;;19.80;91.00;;;;;;5049198;28;20221;-67
2022/06/23 03:00:38;;;;;;;1.33;0.70;;;19.90;90.90;;;;;;5055938;28;20650;-67
2022/06/23 03:03:28;;;;;;;1.42;0.77;;;19.70;91.10;;;;;;5055823;28;20254;-68
2022/06/23 03:05:53;;;;;;;1.02;0.70;;;19.70;91.20;;;;;;5055655;28;20197;-67
2022/06/23 03:08:27;;;;;;;1.15;1.05;;;19.70;91.40;;;;;;5055529;28;20167;-67
2022/06/23 03:11:08;;;;;;;0.80;0.80;;;19.70;91.30;;;;;;5055368;28;20672;-68
2022/06/23 03:13:44;;;;;;;0.70;0.70;;;19.70;91.20;;;;;;5037719;28;20628;-68
2022/06/23 03:16:38;;;;;;;1.02;0.90;;;19.60;91.40;;;;;;5055472;28;20175;-68
2022/06/23 03:19:11;;;;;;;0.80;0.80;;;19.60;91.40;;;;;;5055885;28;20172;-67
2022/06/23 03:21:50;;;;;;;0.82;0.70;;;19.50;91.40;;;;;;5055293;28;20632;-66
2022/06/23 03:24:21;;;;;;;0.90;0.63;;;19.50;91.40;;;;;;5055471;28;20171;-68
2022/06/23 03:26:56;;;;;;;0.95;0.70;;;19.60;91.60;;;;;;5055303;28;20309;-68
2022/06/23 03:29:50;;;;;;;0.70;0.70;;;19.60;91.70;;;;;;5055000;28;20176;-67
2022/06/23 03:32:24;;;;;;;1.13;0.65;;;19.60;91.40;;;;;;5020890;28;20678;-67
2022/06/23 03:35:11;;;;;;;0.90;0.70;;;19.60;91.60;;;;;;5055200;28;20623;-67
2022/06/23 03:38:06;;;;;;;0.93;0.80;;;19.60;91.40;;;;;;5054990;28;20624;-67
2022/06/23 03:43:33;;;;;;;0.73;0.65;;;19.50;91.50;;;;;;5055216;28;20237;-67
2022/06/23 03:46:05;;;;;;;1.40;0.80;;;19.60;91.40;;;;;;5054742;28;20171;-68
2022/06/23 03:48:39;;;;;;;0.93;0.80;;;19.60;91.50;;;;;;5055016;28;20195;-67
2022/06/23 03:51:13;;;;;;;0.90;0.68;;;19.50;91.80;;;;;;5054804;28;20291;-67
2022/06/23 03:53:50;;;;;;;1.30;0.85;;;19.50;91.70;;;;;;5054776;28;20171;-66
2022/06/23 03:56:22;;;;;;;0.70;0.70;;;19.50;91.60;;;;;;5036636;28;20531;-67
2022/06/23 03:58:59;;;;;;;0.60;0.60;;;19.40;91.70;;;;;;5054856;28;20194;-67
2022/06/23 04:01:37;;;;;;;0.98;0.82;;;19.50;91.70;;;;;;5054640;28;20171;-62
2022/06/23 04:04:14;;;;;;;0.77;0.70;;;19.50;91.70;;;;;;5054586;28;20259;-67
2022/06/23 04:06:43;;;;;;;1.45;0.75;;;19.40;92.00;;;;;;5054447;28;20221;-67
2022/06/23 04:09:25;;;;;;;0.68;0.68;;;19.40;92.00;;;;;;5036726;28;20525;-67
2022/06/23 04:11:59;;;;;;;1.02;0.80;;;19.30;92.40;;;;;;5054458;28;20183;-67
2022/06/23 04:14:31;;;;;;;0.85;0.73;;;19.40;92.00;;;;;;5054416;28;20174;-64
2022/06/23 04:17:19;;;;;;;0.80;0.80;;;19.40;92.30;;;;;;5054145;28;20171;-67
2022/06/23 04:19:54;;;;;;;1.15;0.98;;;19.40;92.70;;;;;;5054464;28;20202;-67
2022/06/23 04:22:52;;;;;;;1.98;0.90;;;19.30;92.70;;;;;;5054332;28;20257;-67
2022/06/23 04:25:45;;;;;;;0.70;0.70;;;19.30;92.80;;;;;;5035391;28;20548;-67
2022/06/23 04:28:26;;;;;;;0.60;0.60;;;19.40;92.80;;;;;;5054562;28;20268;-65
2022/06/23 04:30:56;;;;;;;1.00;0.90;;;19.40;92.40;;;;;;5054019;28;20217;-67
2022/06/23 04:33:24;;;;;;;0.98;0.93;;;19.40;92.60;;;;;;5053996;28;20197;-67
2022/06/23 04:35:56;;;;;;;2.97;0.95;;;19.40;92.90;;;;;;5053823;28;20629;-67
2022/06/23 04:38:43;;;;;;;0.90;0.80;;;19.40;92.40;;;;;;5053816;28;20650;-68
2022/06/23 04:41:21;;;;;;;0.75;0.75;;;19.40;92.60;;;;;;5053850;28;20650;-68
2022/06/23 04:43:50;;;;;;;0.60;0.60;;;19.40;92.80;;;;;;5053835;28;20217;-68
2022/06/23 04:46:41;;;;;;;0.75;0.75;;;19.40;92.60;;;;;;5053660;28;20166;-67
2022/06/23 04:49:24;;;;;;;0.93;0.65;;;19.40;93.10;;;;;;5053831;28;20164;-68
2022/06/23 04:52:01;;;;;;;0.57;0.57;;;19.40;93.40;;;;;;5019845;28;20218;-67
2022/06/23 04:54:50;;;;;;;1.25;0.90;;;19.50;93.60;;;;;;5053626;28;20179;-67
2022/06/23 04:57:25;;;;;;;1.35;1.20;;;19.50;93.60;;;;;;5036143;28;20193;-68
2022/06/23 04:59:52;;;;;;;0.98;0.80;;;19.50;93.70;;;;;;5053556;28;20661;-56
2022/06/23 05:02:32;;;;;;;0.90;0.88;;;19.60;93.90;;;;;;5053358;28;20217;-59
2022/06/23 05:05:14;;;;;;;1.10;1.00;;;19.60;93.70;;;;;;5053004;28;20602;-59
2022/06/23 05:07:48;;;;;;;1.30;1.00;;;19.60;93.70;;;;;;5051615;28;20336;-59
2022/06/23 05:10:25;;;;;;;1.20;1.05;;;19.60;93.60;;;;;;5053540;28;20202;-58
2022/06/23 05:12:56;;;;;;;1.58;0.80;;;19.60;93.50;;;;;;5053401;28;20543;-58
2022/06/23 05:15:31;;;;;;;0.80;0.73;;;19.80;94.00;;;;;;5035487;28;20575;-59
2022/06/23 05:18:10;;;;;;;2.45;1.08;;;19.80;93.20;;;;;;5053608;28;20269;-59
2022/06/23 05:21:04;;;;;;;0.80;0.80;;;19.80;93.40;;;;;;5053421;28;20244;-59
2022/06/23 05:23:39;;;;;;;1.23;0.90;;;19.80;93.10;;;;;;5053288;28;20213;-59
2022/06/23 05:26:12;;;;;;;1.50;1.20;;;19.70;93.10;;;;;;5053080;28;20247;-60
2022/06/23 05:28:41;;;;;;;3.70;1.10;;;19.90;93.50;;;;;;5053553;28;20206;-59
2022/06/23 05:31:13;;;;;;;1.60;1.00;;;19.90;93.00;;;;;;5035653;28;20589;-59
2022/06/23 05:33:46;;;;;;;1.38;1.00;;;19.90;93.00;;;;;;5035217;28;20628;-59
2022/06/23 05:36:27;;;;;;;0.80;0.80;;;20.00;93.30;;;;;;5052951;28;20171;-59
2022/06/23 05:39:18;;;;;;;1.85;1.10;;;20.10;93.20;;;;;;5053060;28;20190;-59
2022/06/23 05:41:47;;;;;;;1.00;0.90;;;20.40;93.90;;;;;;5053135;28;20218;-59
2022/06/23 05:44:20;;;;;;;1.23;0.93;;;20.40;93.20;;;;;;5053041;28;20171;-55
2022/06/23 05:46:48;;;;;;;1.65;1.13;;;20.50;93.30;;;;;;5052890;28;20640;-59
2022/06/23 05:49:18;;;;;;;1.40;1.10;;;20.50;93.00;;;;;;5052833;28;20182;-59
2022/06/23 05:51:59;;;;;;;1.67;1.00;;;20.50;93.10;;;;;;5053281;28;20548;-59
2022/06/23 05:54:41;;;;;;;1.00;0.90;;;20.50;93.10;;;;;;5052951;28;20312;-59
2022/06/23 05:57:18;;;;;;;1.27;0.88;;;20.60;93.00;;;;;;5052792;28;20171;-59
2022/06/23 06:00:22;;;;;;;1.30;1.20;;;20.70;93.20;;;;;;5053020;28;20183;-59
2022/06/23 06:03:01;;;;;;;2.15;1.10;;;20.70;93.40;;;;;;4952717;29;20190;-59
2022/06/23 06:05:33;;;;;;;2.08;1.38;;;20.90;93.60;;;;;;5040688;28;20524;-58
2022/06/23 06:08:01;;;;;;;1.40;1.17;;;21.00;93.70;;;;;;5052953;28;20229;-59
2022/06/23 06:10:29;;;;;;;1.67;1.00;;;21.20;93.70;;;;;;5052682;28;20226;-58
2022/06/23 06:12:56;;;;;;;1.20;0.90;;;21.30;93.50;;;;;;5034835;28;20652;-59
2022/06/23 06:15:22;;;;;;;1.77;1.02;;;21.40;94.00;;;;;;5035094;28;20653;-60
2022/06/23 06:17:52;;;;;;;1.58;1.10;;;21.50;93.40;;;;;;5052544;28;20176;-59
2022/06/23 06:20:24;;;;;;;2.05;1.00;;;21.50;93.90;;;;;;5038044;28;20210;-60
2022/06/23 06:23:05;;;;;;;1.15;1.00;;;21.70;94.40;;;;;;5056929;28;20206;-58
2022/06/23 06:25:37;;;;;;;1.95;1.20;;;21.90;94.40;;;;;;5056534;28;20167;-58
2022/06/23 06:28:34;;;;;;;1.95;1.42;;;21.90;93.80;;;;;;5056326;28;20203;-58
2022/06/23 06:30:59;;;;;;;1.20;1.10;;;21.90;93.80;;;;;;5056511;28;20351;-59
2022/06/23 06:33:37;;;;;;;2.28;1.40;;;21.90;94.80;;;;;;5056349;28;20177;-58
2022/06/23 06:36:20;;;;;;;3.10;1.25;;;22.10;94.50;;;;;;5056172;28;20183;-58
2022/06/23 06:38:46;;;;;;;1.52;1.08;;;22.20;93.90;;;;;;5040922;28;20183;-59
2022/06/23 06:41:12;;;;;;;1.75;1.10;;;22.50;94.50;;;;;;5056035;28;20254;-60
2022/06/23 06:43:38;;;;;;;2.25;1.38;;;22.60;94.10;;;;;;5038336;28;20176;-58
2022/06/23 06:46:03;;;;;;;1.83;1.02;;;22.80;94.60;;;;;;5056160;28;20620;-58
2022/06/23 06:48:32;;;;;;;1.08;0.98;;;22.70;94.90;;;;;;5056057;28;20628;-59
2022/06/23 06:51:08;;;;;;;1.20;1.10;;;22.90;95.10;;;;;;5037944;28;20210;-59
2022/06/23 06:53:43;;;;;;;1.20;1.10;;;23.10;95.10;;;;;;5056024;28;20175;-58
2022/06/23 06:56:34;;;;;;;1.45;1.13;;;23.20;94.80;;;;;;5055931;28;20175;-59
2022/06/23 06:59:21;;;;;;;1.88;1.20;;;23.50;95.90;;;;;;5055864;28;20241;-59
2022/06/23 07:02:09;;;;;;;1.90;1.40;;;23.80;95.80;;;;;;5055650;28;20190;-59
2022/06/23 07:04:49;;;;;;;1.55;1.40;;;23.90;95.30;;;;;;5054975;28;20187;-59
2022/06/23 07:07:23;;;;;;;2.65;1.35;;;23.80;95.70;;;;;;5055773;28;20195;-59
2022/06/23 07:10:10;;;;;;;2.33;1.40;;;24.00;96.00;;;;;;5055542;28;20259;-59
2022/06/23 07:12:48;;;;;;;2.92;1.38;;;24.10;95.20;;;;;;5055748;28;20237;-58
2022/06/23 07:15:32;;;;;;;1.33;1.17;;;24.10;96.00;;;;;;5055526;28;20291;-58
2022/06/23 07:17:58;;;;;;;1.60;1.40;;;24.40;96.20;;;;;;5055516;28;20171;-58
2022/06/23 07:20:36;;;;;;;2.05;1.50;;;24.60;96.20;;;;;;5055245;28;20172;-59
2022/06/23 07:23:17;;;;;;;2.08;1.58;;;24.70;96.10;;;;;;5055568;28;20171;-58
2022/06/23 07:25:49;;;;;;;2.15;1.45;;;24.70;96.40;;;;;;5055257;28;20555;-58
2022/06/23 07:28:46;;;;;;;2.42;1.77;;;24.70;96.60;;;;;;5037471;28;20573;-58
2022/06/23 07:31:20;;;;;;;2.35;1.77;;;24.50;96.80;;;;;;5054416;28;20222;-58
2022/06/23 07:34:08;;;;;;;1.58;1.42;;;24.50;97.80;;;;;;5037405;28;20202;-58
2022/06/23 07:36:46;;;;;;;1.88;1.30;;;24.80;96.90;;;;;;5055170;28;20163;-58
2022/06/23 07:39:25;;;;;;;1.85;1.42;;;25.10;97.00;;;;;;5037112;28;20179;-58
2022/06/23 07:42:05;;;;;;;2.65;2.00;;;25.10;97.50;;;;;;5055120;28;20257;-58
2022/06/23 07:44:41;;;;;;;1.73;1.50;;;25.20;97.00;;;;;;5054955;28;20536;-59
2022/06/23 07:47:07;;;;;;;2.22;1.70;;;24.90;97.30;;;;;;5054956;28;20524;-58
2022/06/23 07:49:33;;;;;;;2.63;1.48;;;25.20;97.70;;;;;;5054616;28;20172;-59
2022/06/23 07:52:01;;;;;;;2.08;1.60;;;25.50;97.40;;;;;;5054763;28;20178;-58
2022/06/23 07:54:27;;;;;;;1.90;1.40;;;25.50;97.70;;;;;;5054678;28;20642;-58
2022/06/23 07:56:54;;;;;;;1.90;1.40;;;25.70;97.60;;;;;;5054756;28;20177;-58
2022/06/23 07:59:28;;;;;;;1.80;1.30;;;25.90;97.50;;;;;;5037000;28;20195;-59
2022/06/23 08:02:17;;;;;;;2.22;1.50;;;26.00;97.10;;;;;;5054728;28;20168;-58
2022/06/23 08:04:51;;;;;;;2.00;1.42;;;25.90;97.90;;;;;;5054775;28;20175;-59
2022/06/23 08:07:18;;;;;;;1.65;1.52;;;26.20;97.90;;;;;;5054659;28;20168;-58
2022/06/23 08:09:50;;;;;;;1.95;1.52;;;26.30;98.20;;;;;;5054278;28;20207;-58
2022/06/23 08:12:55;;;;;;;2.90;1.80;;;26.50;98.00;;;;;;5054389;28;20202;-58
2022/06/23 08:18:59;;;;;;;2.10;1.48;;;26.90;98.50;;;;;;5054494;28;20206;-59
2022/06/23 08:21:41;;;;;;;1.65;1.52;;;27.00;99.10;;;;;;5054200;28;20177;-58
2022/06/23 08:24:14;;;;;;;1.85;1.40;;;27.10;98.60;;;;;;5054329;28;20163;-58
2022/06/23 08:26:44;;;;;;;3.80;2.08;;;27.10;98.70;;;;;;5054428;28;20164;-58
2022/06/23 08:29:14;;;;;;;2.88;1.67;;;27.10;98.70;;;;;;5054006;28;20175;-58
2022/06/23 08:31:40;;;;;;;4.97;1.90;;;27.00;99.00;;;;;;5053923;28;20206;-59
2022/06/23 08:34:07;;;;;;;2.22;1.60;;;27.20;99.10;;;;;;5054071;28;20172;-59
2022/06/23 08:36:45;;;;;;;2.65;1.73;;;27.60;99.00;;;;;;5053817;28;20180;-59
2022/06/23 08:39:31;;;;;;;3.00;1.60;;;27.80;98.90;;;;;;5053804;28;20171;-58
2022/06/23 08:42:06;;;;;;;2.60;2.15;;;27.90;98.60;;;;;;5054178;28;20229;-58
2022/06/23 08:44:47;;;;;;;2.55;1.65;;;27.40;98.90;;;;;;5053783;28;20167;-58
2022/06/23 08:47:16;;;;;;;2.00;1.80;;;27.50;98.20;;;;;;5053823;28;20178;-58
2022/06/23 08:50:02;;;;;;;1.67;1.52;;;27.50;98.80;;;;;;5053534;28;20167;-58
2022/06/23 08:52:50;;;;;;;2.60;1.73;;;27.70;98.80;;;;;;5053878;28;20162;-58
2022/06/23 08:55:27;;;;;;;3.22;1.67;;;27.60;98.50;;;;;;5053751;28;20190;-58
2022/06/23 08:57:58;;;;;;;3.05;2.10;;;27.50;98.80;;;;;;5053613;28;20237;-58
2022/06/23 09:00:39;;;;;;;3.17;2.20;;;27.60;98.40;;;;;;5053852;28;20191;-59
2022/06/23 09:03:19;;;;;;;2.40;1.90;;;27.60;97.80;;;;;;5053550;28;20502;-58
2022/06/23 09:05:54;;;;;;;2.10;1.88;;;27.20;98.90;;;;;;5053615;28;20174;-59
2022/06/23 09:08:55;;;;;;;1.88;1.60;;;27.10;98.80;;;;;;5053487;28;20174;-58
2022/06/23 09:11:28;;;;;;;1.80;1.67;;;27.10;98.90;;;;;;5053531;28;20265;-58
2022/06/23 09:14:22;;;;;;;2.72;1.85;;;26.90;98.80;;;;;;5053333;28;20199;-59
2022/06/23 09:17:25;;;;;;;2.58;2.05;;;27.00;99.10;;;;;;5053401;28;20692;-60
2022/06/23 09:20:12;;;;;;;2.33;1.73;;;27.10;99.50;;;;;;5053476;28;20524;-58
2022/06/23 09:23:01;;;;;;;2.92;1.88;;;27.30;98.70;;;;;;5053422;28;20709;-58
2022/06/23 09:25:49;;;;;;;2.80;1.80;;;27.50;98.60;;;;;;5053133;28;20159;-58
2022/06/23 09:28:50;;;;;;;2.40;2.08;;;27.60;98.60;;;;;;5053141;28;20259;-58
2022/06/23 09:31:36;;;;;;;1.83;1.48;;;27.20;98.60;;;;;;5047746;28;20249;-59
2022/06/23 09:34:22;;;;;;;2.22;1.70;;;27.20;98.50;;;;;;5053318;28;20183;-58
2022/06/23 09:37:03;;;;;;;2.60;1.70;;;27.20;99.20;;;;;;5035481;28;20175;-59
2022/06/23 09:39:41;;;;;;;2.00;1.80;;;27.40;99.30;;;;;;5053205;28;20693;-58
2022/06/23 09:42:07;;;;;;;2.58;1.88;;;27.30;98.70;;;;;;5052918;28;20529;-58
2022/06/23 09:45:09;;;;;;;2.17;1.95;;;27.20;99.30;;;;;;5053197;28;20167;-58
2022/06/23 09:48:20;;;;;;;1.95;1.70;;;27.70;99.60;;;;;;5053147;28;20175;-59
2022/06/23 09:50:55;;;;;;;3.35;1.85;;;28.10;99.10;;;;;;5053147;28;20202;-59
2022/06/23 09:53:45;;;;;;;2.40;1.77;;;28.20;98.80;;;;;;5053151;28;20693;-59
2022/06/23 09:56:52;;;;;;;1.90;1.70;;;28.50;98.60;;;;;;5057086;28;20616;-58
2022/06/23 09:59:26;;;;;;;2.08;1.65;;;28.50;97.70;;;;;;5008082;28;20178;-58
2022/06/23 10:02:00;;;;;;;2.05;1.80;;;28.40;97.90;;;;;;5056938;28;20636;-58
2022/06/23 10:04:32;;;;;;;1.88;1.42;;;28.40;98.40;;;;;;5057195;28;20178;-58
2022/06/23 10:07:21;;;;;;;3.80;2.00;;;28.00;98.20;;;;;;5056756;28;20168;-58
2022/06/23 10:10:25;;;;;;;1.88;1.70;;;27.60;98.60;;;;;;5056742;28;20199;-59
2022/06/23 10:13:25;;;;;;;1.77;1.67;;;27.40;99.90;;;;;;5056603;28;20636;-58
2022/06/23 10:16:14;;;;;;;2.00;1.80;;;27.80;98.80;;;;;;5056281;28;20180;-58
2022/06/23 10:19:07;;;;;;;2.05;1.70;;;28.10;99.20;;;;;;5037659;28;20183;-58
2022/06/23 10:21:37;;;;;;;2.10;1.70;;;28.00;98.60;;;;;;5056719;28;20183;-59
2022/06/23 10:24:42;;;;;;;2.17;1.63;;;28.30;98.60;;;;;;5056742;28;20172;-58
2022/06/23 10:27:16;;;;;;;1.73;1.63;;;28.30;97.70;;;;;;5056395;28;20174;-58
2022/06/23 10:30:13;;;;;;;2.35;1.73;;;28.60;98.10;;;;;;5056362;28;20633;-59
2022/06/23 10:33:17;;;;;;;3.00;1.67;;;29.00;97.60;;;;;;5056416;28;20183;-58
2022/06/23 10:36:11;;;;;;;2.10;1.45;;;29.50;96.80;;;;;;5026234;28;20187;-58
2022/06/23 10:38:45;;;;;;;3.08;1.60;;;29.60;96.40;;;;;;5056582;28;20657;-55
2022/06/23 10:41:23;;;;;;;1.60;1.40;;;29.20;95.10;;;;;;5056423;28;20193;-59
2022/06/23 10:44:04;;;;;;;1.20;1.10;;;28.70;96.00;;;;;;5056222;28;20250;-57
2022/06/23 10:46:42;;;;;;;1.48;1.38;;;28.30;96.00;;;;;;5056082;28;20199;-58
2022/06/23 10:49:26;;;;;;;1.45;1.25;;;28.20;96.60;;;;;;5056288;28;20174;-58
2022/06/23 10:52:20;;;;;;;1.85;1.70;;;28.50;96.70;;;;;;5055924;28;20214;-58
2022/06/23 10:55:01;;;;;;;2.10;1.65;;;28.50;96.20;;;;;;5055851;28;20717;-58
2022/06/23 10:57:36;;;;;;;1.92;1.58;;;29.10;97.20;;;;;;5056317;28;20566;-59
2022/06/23 11:00:19;;;;;;;2.08;1.50;;;29.60;96.50;;;;;;5055958;28;20281;-58
2022/06/23 11:03:03;;;;;;;2.08;1.52;;;29.60;96.00;;;;;;5055992;28;20175;-59
2022/06/23 11:05:35;;;;;;;1.45;1.35;;;29.60;96.00;;;;;;5054503;28;20259;-58
2022/06/23 11:08:27;;;;;;;2.97;1.50;;;29.50;96.00;;;;;;5055887;28;20207;-58
2022/06/23 11:10:58;;;;;;;1.55;1.42;;;29.50;96.10;;;;;;5055525;28;20199;-58
2022/06/23 11:13:49;;;;;;;1.55;1.45;;;29.60;96.70;;;;;;5055584;28;20251;-58
2022/06/23 11:16:23;;;;;;;3.08;1.50;;;29.50;96.20;;;;;;5037778;28;20178;-58
2022/06/23 11:18:58;;;;;;;1.55;1.45;;;28.90;95.90;;;;;;5055424;28;20178;-59
2022/06/23 11:21:46;;;;;;;1.48;1.23;;;28.80;96.60;;;;;;5055445;28;20253;-59
2022/06/23 11:24:30;;;;;;;1.83;1.63;;;29.00;96.40;;;;;;5037426;28;20709;-58
2022/06/23 11:27:10;;;;;;;2.35;1.60;;;29.00;96.80;;;;;;5055770;28;20198;-59
2022/06/23 11:30:00;;;;;;;1.70;1.60;;;29.10;96.30;;;;;;5055344;28;20206;-59
2022/06/23 11:32:38;;;;;;;1.60;1.30;;;29.50;96.80;;;;;;5055215;28;20179;-58
2022/06/23 11:35:31;;;;;;;1.38;1.27;;;29.80;95.90;;;;;;5055431;28;20229;-58
2022/06/23 11:38:08;;;;;;;1.45;0.90;;;30.20;95.60;;;;;;5055066;28;20574;-58
2022/06/23 11:40:48;;;;;;;1.23;1.13;;;29.70;95.30;;;;;;5055094;28;20624;-58
2022/06/23 11:43:19;;;;;;;1.40;1.30;;;29.50;96.10;;;;;;5055043;28;20174;-58
2022/06/23 11:46:06;;;;;;;1.20;1.10;;;29.60;96.70;;;;;;5055088;28;20498;-59
2022/06/23 11:48:41;;;;;;;1.38;1.27;;;30.10;96.10;;;;;;5054928;28;20628;-58
2022/06/23 11:51:16;;;;;;;1.40;1.17;;;30.20;95.30;;;;;;5054733;28;20187;-58
2022/06/23 11:53:50;;;;;;;1.00;1.00;;;30.10;95.40;;;;;;5055011;28;20185;-59
2022/06/23 11:56:35;;;;;;;2.33;1.30;;;29.80;95.30;;;;;;5054857;28;20631;-60
2022/06/23 11:59:21;;;;;;;2.22;1.08;;;30.00;95.70;;;;;;5054718;28;20175;-56
2022/06/23 12:01:47;;;;;;;1.20;1.10;;;30.10;94.90;;;;;;5054642;28;20265;-58
2022/06/23 12:04:21;;;;;;;1.42;1.20;;;30.40;95.20;;;;;;5036993;28;20636;-57
2022/06/23 12:07:08;;;;;;;1.13;1.02;;;30.40;94.90;;;;;;5054585;28;20249;-59
2022/06/23 12:10:12;;;;;;;1.25;1.13;;;30.00;95.10;;;;;;5036493;28;20532;-59
2022/06/23 12:12:40;;;;;;;1.30;0.80;;;29.40;95.40;;;;;;5054446;28;20229;-58
2022/06/23 12:15:07;;;;;;;1.23;1.13;;;29.50;96.30;;;;;;5054471;28;20270;-58
2022/06/23 12:17:46;;;;;;;1.10;0.93;;;29.80;95.60;;;;;;5036447;28;20184;-58
2022/06/23 12:20:27;;;;;;;1.63;1.10;;;30.10;95.70;;;;;;5036389;28;20179;-58
2022/06/23 12:23:19;;;;;;;1.20;1.10;;;30.20;95.80;;;;;;5054693;28;20175;-59
2022/06/23 12:26:07;;;;;;;2.33;1.00;;;30.50;96.20;;;;;;5054228;28;20168;-59
2022/06/23 12:28:46;;;;;;;1.27;1.02;;;30.50;95.60;;;;;;5054205;28;20218;-59
2022/06/23 12:31:24;;;;;;;1.23;0.93;;;30.60;94.80;;;;;;5053959;28;20213;-60
2022/06/23 12:34:03;;;;;;;2.25;0.88;;;30.60;94.30;;;;;;5054164;28;20636;-58
2022/06/23 12:36:37;;;;;;;1.50;1.15;;;30.50;94.30;;;;;;5054043;28;20271;-59
2022/06/23 12:39:14;;;;;;;1.27;1.10;;;30.50;94.60;;;;;;5053823;28;20220;-60
2022/06/23 12:41:52;;;;;;;1.20;1.10;;;30.50;95.20;;;;;;5053912;28;20690;-60
2022/06/23 12:44:35;;;;;;;1.17;1.08;;;30.80;95.00;;;;;;5054270;28;20182;-59
2022/06/23 12:47:10;;;;;;;1.48;1.10;;;30.50;95.00;;;;;;5053831;28;20166;-58
2022/06/23 12:50:19;;;;;;;1.48;1.20;;;30.50;95.00;;;;;;5053585;28;20181;-59
2022/06/23 12:53:17;;;;;;;1.30;1.20;;;30.40;95.20;;;;;;5054070;28;20175;-59
2022/06/23 12:56:16;;;;;;;1.73;1.30;;;30.10;95.70;;;;;;5053599;28;20171;-58
2022/06/23 12:58:51;;;;;;;1.30;1.20;;;30.20;95.70;;;;;;5053498;28;20179;-59
2022/06/23 13:01:28;;;;;;;1.08;1.02;;;30.10;95.20;;;;;;5053612;28;20647;-58
2022/06/23 13:04:24;;;;;;;2.47;1.25;;;30.30;95.10;;;;;;5053512;28;20179;-58
2022/06/23 13:06:58;;;;;;;1.23;1.13;;;30.10;95.10;;;;;;5052817;28;20270;-58
2022/06/23 13:09:30;;;;;;;1.42;1.33;;;30.20;95.20;;;;;;5053525;28;20197;-54
2022/06/23 13:12:03;;;;;;;1.20;1.10;;;30.10;95.30;;;;;;5053363;28;20260;-58
2022/06/23 13:14:35;;;;;;;1.17;1.05;;;30.30;95.10;;;;;;5053241;28;20167;-59
2022/06/23 13:17:08;;;;;;;1.20;1.10;;;30.40;95.30;;;;;;5053814;28;20168;-56
2022/06/23 13:19:50;;;;;;;1.45;1.00;;;30.30;94.30;;;;;;5053350;28;20237;-59
2022/06/23 13:22:15;;;;;;;2.33;1.05;;;30.30;94.60;;;;;;5053205;28;20635;-58
2022/06/23 13:24:43;;;;;;;0.82;0.82;;;30.40;94.60;;;;;;5019051;28;20180;-58
2022/06/23 13:27:18;;;;;;;2.28;0.93;;;30.30;94.40;;;;;;5053028;28;20207;-59
2022/06/23 13:30:14;;;;;;;1.10;1.00;;;30.20;94.40;;;;;;5052471;28;20355;-58
2022/06/23 13:33:04;;;;;;;1.10;0.90;;;30.40;94.40;;;;;;5033185;28;20187;-58
2022/06/23 13:35:38;;;;;;;1.70;0.85;;;30.40;94.10;;;;;;5052942;28;20175;-59
2022/06/23 13:38:33;;;;;;;1.15;1.05;;;30.40;93.10;;;;;;5053241;28;20182;-58
2022/06/23 13:41:14;;;;;;;0.98;0.90;;;30.50;93.30;;;;;;5053096;28;20506;-59
2022/06/23 13:44:09;;;;;;;0.85;0.85;;;30.40;93.30;;;;;;5053222;28;20559;-59
2022/06/23 13:46:59;;;;;;;1.40;1.17;;;30.20;93.30;;;;;;5053126;28;20171;-59
2022/06/23 13:49:38;;;;;;;0.95;0.90;;;30.20;93.30;;;;;;5036396;28;20190;-58
2022/06/23 13:52:15;;;;;;;1.75;1.10;;;30.40;93.60;;;;;;5052892;28;20183;-58
2022/06/23 13:55:16;;;;;;;1.00;1.00;;;30.30;93.00;;;;;;5035153;28;20175;-59
2022/06/23 13:57:47;;;;;;;1.10;1.00;;;30.10;92.70;;;;;;5047812;28;20644;-59
2022/06/23 14:00:24;;;;;;;1.25;1.00;;;30.00;92.40;;;;;;5035028;28;20550;-58